Time;durP1;ratioP1;P1;durP2;ratioP2;P2;SDS_P1;SDS_P2;PMS_P1;PMS_P2;Temp;Humidity;BMP_temperature;BMP_pressure;BME280_temperature;BME280_humidity;BME280_pressure;Samples;Min_cycle;Max_cycle;Signal;HPM_P1;HPM_P2
2021/07/02 00:02:05;;;;;;;39.47;23.90;;;;;;;;;;3580242;39;20788;-77
2021/07/02 00:04:33;;;;;;;34.37;22.47;;;;;;;;;;3591954;39;20411;-76
2021/07/02 00:06:59;;;;;;;41.07;24.30;;;;;;;;;;3598308;39;20410;-76
2021/07/02 00:09:25;;;;;;;36.73;22.70;;;;;;;;;;3600794;39;20417;-78
2021/07/02 00:11:52;;;;;;;42.43;22.67;;;;;;;;;;3601701;39;20390;-76
2021/07/02 00:14:18;;;;;;;37.50;24.70;;;;;;;;;;3590911;39;20447;-76
2021/07/02 00:16:44;;;;;;;34.70;22.90;;;;;;;;;;3601162;39;20422;-76
2021/07/02 00:19:11;;;;;;;35.30;22.73;;;;;;;;;;3601613;39;20436;-77
2021/07/02 00:21:37;;;;;;;47.43;24.70;;;;;;;;;;3600044;39;20397;-77
2021/07/02 00:24:03;;;;;;;37.00;22.90;;;;;;;;;;3590760;39;20739;-77
2021/07/02 00:26:29;;;;;;;32.73;22.50;;;;;;;;;;3592774;39;20414;-77
2021/07/02 00:28:55;;;;;;;32.97;22.17;;;;;;;;;;3600711;39;20483;-77
2021/07/02 00:31:22;;;;;;;35.10;22.63;;;;;;;;;;3591698;39;20928;-77
2021/07/02 00:33:48;;;;;;;35.83;21.40;;;;;;;;;;3590878;39;20484;-77
2021/07/02 00:36:14;;;;;;;36.40;22.07;;;;;;;;;;3600349;39;20410;-77
2021/07/02 00:38:40;;;;;;;41.03;23.37;;;;;;;;;;3591413;39;21210;-77
2021/07/02 00:41:06;;;;;;;36.83;22.50;;;;;;;;;;3591321;39;20406;-77
2021/07/02 00:43:32;;;;;;;44.13;23.30;;;;;;;;;;3594411;39;20457;-77
2021/07/02 00:45:58;;;;;;;41.80;23.10;;;;;;;;;;3592598;39;20471;-77
2021/07/02 00:48:24;;;;;;;39.53;22.63;;;;;;;;;;3583960;39;20391;-77
2021/07/02 00:50:51;;;;;;;37.40;22.63;;;;;;;;;;3582799;39;20932;-77
2021/07/02 00:53:22;;;;;;;38.17;23.30;;;;;;;;;;3584577;39;20427;-77
2021/07/02 00:55:49;;;;;;;35.07;21.77;;;;;;;;;;3600603;39;20389;-77
2021/07/02 00:58:16;;;;;;;42.77;24.63;;;;;;;;;;3602179;39;20422;-77
2021/07/02 01:00:42;;;;;;;35.10;21.83;;;;;;;;;;3601617;39;20468;-77
2021/07/02 01:03:08;;;;;;;35.83;21.73;;;;;;;;;;3601429;39;20410;-77
2021/07/02 01:05:35;;;;;;;38.13;22.27;;;;;;;;;;3600232;39;20406;-77
2021/07/02 01:08:01;;;;;;;35.10;22.13;;;;;;;;;;3592632;39;20450;-77
2021/07/02 01:10:27;;;;;;;26.90;20.10;;;;;;;;;;3577524;39;20387;-77
2021/07/02 01:12:53;;;;;;;33.83;22.63;;;;;;;;;;3601810;39;20406;-77
2021/07/02 01:15:22;;;;;;;42.50;23.87;;;;;;;;;;3582989;39;20542;-77
2021/07/02 01:17:48;;;;;;;40.33;22.30;;;;;;;;;;3584716;39;21281;-77
2021/07/02 01:20:14;;;;;;;43.13;22.80;;;;;;;;;;3583793;39;20438;-77
2021/07/02 01:22:40;;;;;;;36.90;23.03;;;;;;;;;;3592257;39;20474;-77
2021/07/02 01:25:07;;;;;;;39.33;23.47;;;;;;;;;;3593257;39;20845;-76
2021/07/02 01:27:33;;;;;;;39.37;24.53;;;;;;;;;;3591315;39;20436;-76
2021/07/02 01:29:59;;;;;;;38.93;22.70;;;;;;;;;;3590401;39;20365;-76
2021/07/02 01:32:26;;;;;;;37.40;24.43;;;;;;;;;;3591483;39;20493;-76
2021/07/02 01:34:52;;;;;;;42.00;23.73;;;;;;;;;;3602623;39;20844;-76
2021/07/02 01:37:18;;;;;;;34.30;21.30;;;;;;;;;;3592014;39;20488;-76
2021/07/02 01:39:44;;;;;;;44.40;25.10;;;;;;;;;;3582048;39;20417;-77
2021/07/02 01:42:11;;;;;;;36.03;22.63;;;;;;;;;;3581639;39;21170;-75
2021/07/02 01:44:38;;;;;;;38.83;22.20;;;;;;;;;;3601572;39;20411;-77
2021/07/02 01:47:04;;;;;;;53.47;24.70;;;;;;;;;;3601151;39;20417;-76
2021/07/02 01:49:31;;;;;;;44.43;25.07;;;;;;;;;;3592710;39;20447;-76
2021/07/02 01:51:57;;;;;;;38.87;23.83;;;;;;;;;;3603976;39;20382;-76
2021/07/02 01:54:23;;;;;;;44.00;25.67;;;;;;;;;;3601057;39;20381;-76
2021/07/02 01:56:50;;;;;;;42.50;23.13;;;;;;;;;;3602060;39;20411;-76
2021/07/02 01:59:16;;;;;;;38.03;23.73;;;;;;;;;;3593123;39;20429;-77
2021/07/02 02:01:43;;;;;;;46.00;25.53;;;;;;;;;;3601419;39;20373;-77
2021/07/02 02:04:10;;;;;;;52.73;27.23;;;;;;;;;;3590322;39;20748;-76
2021/07/02 02:06:36;;;;;;;42.07;24.70;;;;;;;;;;3601254;39;20575;-76
2021/07/02 02:09:03;;;;;;;46.60;26.50;;;;;;;;;;3599730;39;20388;-77
2021/07/02 02:11:29;;;;;;;42.40;24.53;;;;;;;;;;3600532;39;20447;-77
2021/07/02 02:13:55;;;;;;;47.10;25.87;;;;;;;;;;3594211;39;20404;-76
2021/07/02 02:16:21;;;;;;;43.47;25.00;;;;;;;;;;3592196;39;20412;-76
2021/07/02 02:18:48;;;;;;;44.23;24.70;;;;;;;;;;3592584;39;20381;-76
2021/07/02 02:21:14;;;;;;;42.37;26.40;;;;;;;;;;3594147;39;20390;-77
2021/07/02 02:23:41;;;;;;;49.43;25.23;;;;;;;;;;3592217;39;20835;-76
2021/07/02 02:26:07;;;;;;;45.77;28.20;;;;;;;;;;3584355;39;20712;-77
2021/07/02 02:28:33;;;;;;;41.87;27.43;;;;;;;;;;3583138;39;20407;-76
2021/07/02 02:30:59;;;;;;;42.20;24.30;;;;;;;;;;3590174;39;20499;-77
2021/07/02 02:33:26;;;;;;;43.67;24.17;;;;;;;;;;3582036;39;20520;-76
2021/07/02 02:35:52;;;;;;;48.47;24.97;;;;;;;;;;3590868;39;20404;-75
2021/07/02 02:38:18;;;;;;;43.67;25.60;;;;;;;;;;3592322;39;21026;-76
2021/07/02 02:40:45;;;;;;;45.33;25.97;;;;;;;;;;3601001;39;20458;-76
2021/07/02 02:43:11;;;;;;;47.90;26.00;;;;;;;;;;3602939;39;20411;-76
2021/07/02 02:45:37;;;;;;;42.40;25.93;;;;;;;;;;3600653;39;20378;-76
2021/07/02 02:48:03;;;;;;;54.30;24.90;;;;;;;;;;3600009;39;20426;-76
2021/07/02 02:50:32;;;;;;;38.13;23.63;;;;;;;;;;3590139;39;20403;-76
2021/07/02 02:52:58;;;;;;;52.23;27.80;;;;;;;;;;3588516;39;20516;-76
2021/07/02 02:55:25;;;;;;;48.30;25.30;;;;;;;;;;3599244;39;20519;-76
2021/07/02 02:57:51;;;;;;;42.83;24.70;;;;;;;;;;3590760;39;20411;-76
2021/07/02 03:00:18;;;;;;;47.33;23.17;;;;;;;;;;3583645;39;20395;-76
2021/07/02 03:02:44;;;;;;;48.53;25.00;;;;;;;;;;3591408;39;20421;-76
2021/07/02 03:05:10;;;;;;;50.17;25.87;;;;;;;;;;3591168;39;20422;-76
2021/07/02 03:07:37;;;;;;;43.00;26.43;;;;;;;;;;3594217;39;20842;-76
2021/07/02 03:10:04;;;;;;;38.33;23.10;;;;;;;;;;3601197;39;20512;-76
2021/07/02 03:12:30;;;;;;;44.43;25.77;;;;;;;;;;3582912;39;20564;-76
2021/07/02 03:14:57;;;;;;;44.27;24.57;;;;;;;;;;3599760;39;20753;-76
2021/07/02 03:17:23;;;;;;;41.50;24.50;;;;;;;;;;3585130;39;20373;-76
2021/07/02 03:19:49;;;;;;;37.23;22.83;;;;;;;;;;3593049;39;20418;-76
2021/07/02 03:22:15;;;;;;;51.83;25.03;;;;;;;;;;3591649;39;20423;-76
2021/07/02 03:24:41;;;;;;;40.30;23.20;;;;;;;;;;3602935;39;20456;-76
2021/07/02 03:27:08;;;;;;;42.00;23.50;;;;;;;;;;3590771;39;20686;-76
2021/07/02 03:29:34;;;;;;;37.87;23.47;;;;;;;;;;3599387;39;21942;-76
2021/07/02 03:32:00;;;;;;;36.67;22.57;;;;;;;;;;3593923;39;20823;-77
2021/07/02 03:34:26;;;;;;;40.17;23.50;;;;;;;;;;3592308;39;20801;-76
2021/07/02 03:36:52;;;;;;;44.93;23.80;;;;;;;;;;3602920;39;20405;-76
2021/07/02 03:39:18;;;;;;;39.37;23.47;;;;;;;;;;3600208;39;20460;-77
2021/07/02 03:41:44;;;;;;;51.27;25.50;;;;;;;;;;3600229;39;20426;-77
2021/07/02 03:44:10;;;;;;;40.87;24.37;;;;;;;;;;3601101;39;20835;-77
2021/07/02 03:46:36;;;;;;;45.70;26.70;;;;;;;;;;3591740;39;20556;-77
2021/07/02 03:49:03;;;;;;;40.87;24.00;;;;;;;;;;3576439;39;20539;-77
2021/07/02 03:51:29;;;;;;;42.00;22.20;;;;;;;;;;3592831;39;20449;-77
2021/07/02 03:53:56;;;;;;;38.03;21.80;;;;;;;;;;3582036;39;20397;-77
2021/07/02 03:56:22;;;;;;;43.53;23.10;;;;;;;;;;3592039;39;20403;-77
2021/07/02 03:58:48;;;;;;;40.80;22.50;;;;;;;;;;3598657;39;20406;-77
2021/07/02 04:01:15;;;;;;;39.23;24.30;;;;;;;;;;3601688;39;21047;-77
2021/07/02 04:03:43;;;;;;;45.07;21.20;;;;;;;;;;3600316;39;20397;-77
2021/07/02 04:06:09;;;;;;;39.43;24.43;;;;;;;;;;3586552;39;20438;-77
2021/07/02 04:08:36;;;;;;;37.27;20.80;;;;;;;;;;3590425;39;20377;-77
2021/07/02 04:11:05;;;;;;;35.23;22.10;;;;;;;;;;3592841;39;20553;-77
2021/07/02 04:13:31;;;;;;;40.63;23.10;;;;;;;;;;3599796;39;20403;-78
2021/07/02 04:15:57;;;;;;;35.43;20.90;;;;;;;;;;3584359;39;20878;-78
2021/07/02 04:18:23;;;;;;;35.47;21.23;;;;;;;;;;3581981;39;20440;-77
2021/07/02 04:20:49;;;;;;;34.83;21.83;;;;;;;;;;3591574;39;20443;-76
2021/07/02 04:23:16;;;;;;;37.33;21.20;;;;;;;;;;3598371;39;20529;-77
2021/07/02 04:25:42;;;;;;;31.63;19.80;;;;;;;;;;3602148;39;21025;-76
2021/07/02 04:28:08;;;;;;;29.00;19.87;;;;;;;;;;3601502;39;20441;-76
2021/07/02 04:30:35;;;;;;;34.83;20.70;;;;;;;;;;3601886;39;20820;-76
2021/07/02 04:33:01;;;;;;;38.33;21.50;;;;;;;;;;3600530;39;20712;-76
2021/07/02 04:35:27;;;;;;;32.80;22.10;;;;;;;;;;3598745;39;20991;-76
2021/07/02 04:37:53;;;;;;;38.07;21.87;;;;;;;;;;3584282;39;21215;-76
2021/07/02 04:40:19;;;;;;;39.30;21.37;;;;;;;;;;3581026;39;21829;-77
2021/07/02 04:42:46;;;;;;;27.33;18.73;;;;;;;;;;3590264;39;20467;-77
2021/07/02 04:45:12;;;;;;;41.00;20.70;;;;;;;;;;3591655;39;20478;-77
2021/07/02 04:47:39;;;;;;;44.00;19.27;;;;;;;;;;3579987;39;20832;-77
2021/07/02 04:50:05;;;;;;;34.13;20.90;;;;;;;;;;3579655;39;21148;-77
2021/07/02 04:52:32;;;;;;;34.90;22.07;;;;;;;;;;3579507;39;20744;-77
2021/07/02 04:54:58;;;;;;;36.30;22.07;;;;;;;;;;3579872;39;20491;-77
2021/07/02 04:57:24;;;;;;;41.97;21.10;;;;;;;;;;3580338;39;20850;-76
2021/07/02 04:59:51;;;;;;;34.20;20.10;;;;;;;;;;3589579;39;20443;-76
2021/07/02 05:02:17;;;;;;;46.23;22.80;;;;;;;;;;3589098;39;20494;-76
2021/07/02 05:04:44;;;;;;;40.30;22.10;;;;;;;;;;3590036;39;20802;-76
2021/07/02 05:07:11;;;;;;;36.37;20.40;;;;;;;;;;3589976;39;20410;-76
2021/07/02 05:09:37;;;;;;;38.90;22.30;;;;;;;;;;3589516;39;21202;-76
2021/07/02 05:12:04;;;;;;;41.20;20.90;;;;;;;;;;3589991;39;20566;-76
2021/07/02 05:14:30;;;;;;;39.13;20.97;;;;;;;;;;3573055;39;20726;-77
2021/07/02 05:16:56;;;;;;;33.23;18.93;;;;;;;;;;3579787;39;20415;-77
2021/07/02 05:19:22;;;;;;;28.13;18.03;;;;;;;;;;3579287;39;21138;-76
2021/07/02 05:21:48;;;;;;;38.17;20.37;;;;;;;;;;3589854;39;20521;-76
2021/07/02 05:24:15;;;;;;;33.00;18.57;;;;;;;;;;3579829;39;20409;-79
2021/07/02 05:26:41;;;;;;;32.73;20.93;;;;;;;;;;3574361;39;20415;-80
2021/07/02 05:29:07;;;;;;;32.63;20.67;;;;;;;;;;3570643;39;20862;-76
2021/07/02 05:31:33;;;;;;;28.37;18.43;;;;;;;;;;3582231;39;20507;-75
2021/07/02 05:34:00;;;;;;;27.77;19.60;;;;;;;;;;3581426;39;20426;-76
2021/07/02 05:36:26;;;;;;;33.07;19.60;;;;;;;;;;3592368;39;20404;-76
2021/07/02 05:38:52;;;;;;;34.30;18.50;;;;;;;;;;3583320;39;20427;-76
2021/07/02 05:41:18;;;;;;;31.77;19.30;;;;;;;;;;3605032;39;20428;-76
2021/07/02 05:43:45;;;;;;;30.37;15.40;;;;;;;;;;3596446;39;20399;-76
2021/07/02 05:46:12;;;;;;;25.57;17.57;;;;;;;;;;3587721;39;20407;-77
2021/07/02 05:48:39;;;;;;;25.83;18.33;;;;;;;;;;3601346;39;20415;-76
2021/07/02 05:51:05;;;;;;;29.97;17.40;;;;;;;;;;3601646;39;20427;-77
2021/07/02 05:53:31;;;;;;;29.97;18.13;;;;;;;;;;3603043;39;20403;-76
2021/07/02 05:55:57;;;;;;;24.63;16.20;;;;;;;;;;3591969;39;20433;-76
2021/07/02 05:58:23;;;;;;;22.30;13.47;;;;;;;;;;3595211;39;20476;-76
2021/07/02 06:00:50;;;;;;;28.73;14.93;;;;;;;;;;3586451;39;20450;-76
2021/07/02 06:03:16;;;;;;;19.97;14.80;;;;;;;;;;3602891;39;20406;-76
2021/07/02 06:05:42;;;;;;;25.77;15.30;;;;;;;;;;3582382;39;20395;-76
2021/07/02 06:08:08;;;;;;;23.23;14.20;;;;;;;;;;3593117;39;20454;-77
2021/07/02 06:10:34;;;;;;;25.77;15.00;;;;;;;;;;3592140;39;20417;-76
2021/07/02 06:13:01;;;;;;;24.80;16.20;;;;;;;;;;3593921;39;20438;-76
2021/07/02 06:15:27;;;;;;;24.83;15.90;;;;;;;;;;3584953;39;20410;-77
2021/07/02 06:17:54;;;;;;;22.90;14.13;;;;;;;;;;3594537;39;20430;-77
2021/07/02 06:20:22;;;;;;;23.60;16.07;;;;;;;;;;3594780;39;20495;-76
2021/07/02 06:22:50;;;;;;;17.13;14.50;;;;;;;;;;3592272;39;20410;-77
2021/07/02 06:25:17;;;;;;;21.50;13.30;;;;;;;;;;3593698;39;20500;-77
2021/07/02 06:27:43;;;;;;;21.50;15.00;;;;;;;;;;3587964;39;21832;-76
2021/07/02 06:30:10;;;;;;;18.77;13.73;;;;;;;;;;3600789;39;20438;-76
2021/07/02 06:32:36;;;;;;;20.70;15.00;;;;;;;;;;3581339;39;20415;-76
2021/07/02 06:35:02;;;;;;;18.63;14.13;;;;;;;;;;3589431;39;20410;-76
2021/07/02 06:37:28;;;;;;;21.47;15.77;;;;;;;;;;3591467;39;20466;-77
2021/07/02 06:39:55;;;;;;;26.50;14.67;;;;;;;;;;3602870;39;20413;-77
2021/07/02 06:42:21;;;;;;;21.57;16.80;;;;;;;;;;3601187;39;20827;-77
2021/07/02 06:44:47;;;;;;;17.50;13.90;;;;;;;;;;3581469;39;20414;-76
2021/07/02 06:47:13;;;;;;;22.20;13.17;;;;;;;;;;3593810;39;20541;-76
2021/07/02 06:49:39;;;;;;;19.80;14.50;;;;;;;;;;3586073;39;20468;-77
2021/07/02 06:52:07;;;;;;;17.70;13.10;;;;;;;;;;3582818;39;20410;-77
2021/07/02 06:54:33;;;;;;;18.63;13.87;;;;;;;;;;3604772;39;20810;-77
2021/07/02 06:57:02;;;;;;;16.47;12.00;;;;;;;;;;3590813;39;20403;-77
2021/07/02 06:59:30;;;;;;;15.40;11.27;;;;;;;;;;3604113;39;20426;-76
2021/07/02 07:01:56;;;;;;;25.20;10.50;;;;;;;;;;3589015;39;20474;-77
2021/07/02 07:04:22;;;;;;;16.30;9.63;;;;;;;;;;3602225;39;20419;-77
2021/07/02 07:06:49;;;;;;;14.33;9.13;;;;;;;;;;3601751;39;20412;-77
2021/07/02 07:09:15;;;;;;;16.93;9.50;;;;;;;;;;3582650;39;20407;-77
2021/07/02 07:11:41;;;;;;;18.77;10.07;;;;;;;;;;3584952;39;20408;-77
2021/07/02 07:14:07;;;;;;;16.20;9.03;;;;;;;;;;3599514;39;20451;-76
2021/07/02 07:16:33;;;;;;;20.60;9.90;;;;;;;;;;3582886;39;20442;-75
2021/07/02 07:18:59;;;;;;;13.73;8.00;;;;;;;;;;3600651;39;20504;-76
2021/07/02 07:21:25;;;;;;;12.13;10.20;;;;;;;;;;3601111;39;20483;-75
2021/07/02 07:23:51;;;;;;;13.80;8.90;;;;;;;;;;3591843;39;20399;-75
2021/07/02 07:26:18;;;;;;;13.90;8.10;;;;;;;;;;3590076;39;20422;-75
2021/07/02 07:28:45;;;;;;;12.00;7.90;;;;;;;;;;3589130;39;20454;-75
2021/07/02 07:31:11;;;;;;;11.73;8.17;;;;;;;;;;3581520;39;20402;-75
2021/07/02 07:33:42;;;;;;;9.90;8.37;;;;;;;;;;3600733;39;20430;-75
2021/07/02 07:36:11;;;;;;;11.00;7.40;;;;;;;;;;3592131;39;20403;-75
2021/07/02 07:38:37;;;;;;;11.67;6.80;;;;;;;;;;3592129;39;20439;-75
2021/07/02 07:41:03;;;;;;;9.67;7.17;;;;;;;;;;3584161;39;20407;-74
2021/07/02 07:43:29;;;;;;;8.00;5.70;;;;;;;;;;3602256;39;20442;-75
2021/07/02 07:45:55;;;;;;;5.47;4.97;;;;;;;;;;3600175;39;20426;-75
2021/07/02 07:48:22;;;;;;;9.30;6.13;;;;;;;;;;3589587;39;20407;-75
2021/07/02 07:50:51;;;;;;;5.87;5.33;;;;;;;;;;3584679;39;20439;-74
2021/07/02 07:53:17;;;;;;;6.60;4.87;;;;;;;;;;3581320;39;20776;-76
2021/07/02 07:55:44;;;;;;;8.13;4.67;;;;;;;;;;3590548;39;20415;-75
2021/07/02 07:58:10;;;;;;;4.47;4.07;;;;;;;;;;3591345;39;20403;-74
2021/07/02 08:00:36;;;;;;;11.30;5.00;;;;;;;;;;3590184;39;20398;-74
2021/07/02 08:03:02;;;;;;;7.00;5.00;;;;;;;;;;3589930;39;20842;-75
2021/07/02 08:05:29;;;;;;;7.40;5.33;;;;;;;;;;3590231;39;21164;-75
2021/07/02 08:07:55;;;;;;;5.80;5.30;;;;;;;;;;3581814;39;20883;-75
2021/07/02 08:10:22;;;;;;;5.53;5.00;;;;;;;;;;3591067;39;20702;-75
2021/07/02 08:12:48;;;;;;;6.43;4.13;;;;;;;;;;3591439;39;20407;-74
2021/07/02 08:15:16;;;;;;;4.80;4.33;;;;;;;;;;3581149;39;20402;-75
2021/07/02 08:17:43;;;;;;;18.80;4.10;;;;;;;;;;3588895;39;20458;-75
2021/07/02 08:20:11;;;;;;;5.23;3.80;;;;;;;;;;3600577;39;20441;-75
2021/07/02 08:22:39;;;;;;;4.70;4.20;;;;;;;;;;3592102;39;20415;-75
2021/07/02 08:25:05;;;;;;;4.10;3.60;;;;;;;;;;3601729;39;20396;-75
2021/07/02 08:29:22;;;;;;;5.53;3.90;;;;;;;;;;3596056;39;20749;-75
2021/07/02 08:30:20;;;;;;;7.70;4.53;;;;;;;;;;3589442;39;20395;-75
2021/07/02 08:32:46;;;;;;;5.20;3.87;;;;;;;;;;3589159;39;20433;-75
2021/07/02 08:35:15;;;;;;;5.27;4.37;;;;;;;;;;3589731;39;20402;-75
2021/07/02 08:37:41;;;;;;;9.27;5.53;;;;;;;;;;3599323;39;20452;-75
2021/07/02 08:40:07;;;;;;;6.10;4.43;;;;;;;;;;3599667;39;20434;-75
2021/07/02 08:42:35;;;;;;;4.53;4.23;;;;;;;;;;3589156;39;20890;-75
2021/07/02 08:45:02;;;;;;;3.20;3.00;;;;;;;;;;3600587;39;20410;-75
2021/07/02 08:47:29;;;;;;;3.77;3.47;;;;;;;;;;3584417;39;20488;-76
2021/07/02 08:49:56;;;;;;;5.30;3.57;;;;;;;;;;3592393;39;20476;-75
2021/07/02 08:52:22;;;;;;;4.03;3.73;;;;;;;;;;3591034;39;20414;-74
2021/07/02 08:54:48;;;;;;;4.37;3.23;;;;;;;;;;3600129;39;20406;-74
2021/07/02 08:57:15;;;;;;;6.70;3.80;;;;;;;;;;3596833;39;20888;-75
2021/07/02 08:59:41;;;;;;;6.10;3.77;;;;;;;;;;3601940;39;20379;-75
2021/07/02 09:02:18;;;;;;;3.60;3.33;;;;;;;;;;3591847;39;20461;-75
2021/07/02 09:04:44;;;;;;;4.33;3.97;;;;;;;;;;3589326;39;20457;-75
2021/07/02 09:07:11;;;;;;;5.80;4.77;;;;;;;;;;3588329;39;20450;-76
2021/07/02 09:09:47;;;;;;;4.50;4.20;;;;;;;;;;3592724;39;20383;-74
2021/07/02 09:12:14;;;;;;;4.77;3.23;;;;;;;;;;3601348;39;20841;-74
2021/07/02 09:14:55;;;;;;;4.47;4.07;;;;;;;;;;3593057;39;20701;-76
2021/07/02 09:17:23;;;;;;;6.20;4.67;;;;;;;;;;3583522;39;20537;-74
2021/07/02 09:20:11;;;;;;;5.90;5.20;;;;;;;;;;3589924;39;20446;-75
2021/07/02 09:22:48;;;;;;;6.30;5.80;;;;;;;;;;3590940;39;20403;-75
2021/07/02 09:25:29;;;;;;;8.87;6.60;;;;;;;;;;3593768;39;20402;-75
2021/07/02 09:28:00;;;;;;;7.23;6.30;;;;;;;;;;3593553;39;20425;-75
2021/07/02 09:30:28;;;;;;;4.80;4.50;;;;;;;;;;3598748;39;20804;-75
2021/07/02 09:32:56;;;;;;;6.50;5.87;;;;;;;;;;3600404;39;20422;-75
2021/07/02 09:35:23;;;;;;;7.40;6.37;;;;;;;;;;3599725;39;20461;-75
2021/07/02 09:37:53;;;;;;;5.20;4.60;;;;;;;;;;3583641;39;20445;-75
2021/07/02 09:40:24;;;;;;;5.03;4.50;;;;;;;;;;3591660;39;20473;-76
2021/07/02 09:43:04;;;;;;;5.80;5.30;;;;;;;;;;3590557;39;20395;-74
2021/07/02 09:45:32;;;;;;;5.07;4.67;;;;;;;;;;3594308;39;20414;-75
2021/07/02 09:48:18;;;;;;;8.77;4.97;;;;;;;;;;3589690;39;20426;-74
2021/07/02 09:50:46;;;;;;;7.50;4.30;;;;;;;;;;3589905;39;20681;-75
2021/07/02 09:53:12;;;;;;;5.57;4.20;;;;;;;;;;3598701;39;20396;-75
2021/07/02 09:55:45;;;;;;;5.43;4.93;;;;;;;;;;3589247;39;20423;-74
2021/07/02 09:58:14;;;;;;;6.03;4.70;;;;;;;;;;3584651;39;21273;-75
2021/07/02 10:00:50;;;;;;;5.23;4.20;;;;;;;;;;3593958;39;20395;-75
2021/07/02 10:03:17;;;;;;;4.70;3.90;;;;;;;;;;3593907;39;20406;-75
2021/07/02 10:05:48;;;;;;;5.13;4.63;;;;;;;;;;3589063;39;20411;-75
2021/07/02 10:08:14;;;;;;;6.30;4.70;;;;;;;;;;3600710;39;20610;-75
2021/07/02 10:10:41;;;;;;;8.33;5.20;;;;;;;;;;3589947;39;20383;-75
2021/07/02 10:13:07;;;;;;;6.80;5.10;;;;;;;;;;3590864;39;20454;-75
2021/07/02 10:15:33;;;;;;;4.93;4.53;;;;;;;;;;3592471;39;20553;-75
2021/07/02 10:18:00;;;;;;;6.53;4.60;;;;;;;;;;3582721;39;20422;-75
2021/07/02 10:20:27;;;;;;;5.50;4.17;;;;;;;;;;3600222;39;20491;-75
2021/07/02 10:22:55;;;;;;;5.00;4.60;;;;;;;;;;3584909;39;20524;-75
2021/07/02 10:25:21;;;;;;;10.53;5.20;;;;;;;;;;3591417;39;20399;-75
2021/07/02 10:27:48;;;;;;;5.97;5.43;;;;;;;;;;3590658;39;20434;-75
2021/07/02 10:30:15;;;;;;;7.93;5.93;;;;;;;;;;3598345;39;20421;-75
2021/07/02 10:32:41;;;;;;;10.03;5.90;;;;;;;;;;3591496;39;20406;-75
2021/07/02 10:35:08;;;;;;;5.83;5.23;;;;;;;;;;3583475;39;20407;-76
2021/07/02 10:37:34;;;;;;;6.40;5.80;;;;;;;;;;3590659;39;20537;-75
2021/07/02 10:40:00;;;;;;;9.10;5.53;;;;;;;;;;3582233;39;20606;-75
2021/07/02 10:42:29;;;;;;;5.43;4.93;;;;;;;;;;3590036;39;20418;-76
2021/07/02 10:44:55;;;;;;;6.90;4.30;;;;;;;;;;3602299;39;20513;-75
2021/07/02 10:47:22;;;;;;;5.37;4.83;;;;;;;;;;3581005;39;20492;-75
2021/07/02 10:49:50;;;;;;;7.90;4.23;;;;;;;;;;3602649;39;20387;-75
2021/07/02 10:52:21;;;;;;;5.07;4.53;;;;;;;;;;3585063;39;20414;-75
2021/07/02 10:54:48;;;;;;;7.10;5.77;;;;;;;;;;3602776;39;20399;-75
2021/07/02 10:57:15;;;;;;;7.10;5.90;;;;;;;;;;3589952;39;20531;-75
2021/07/02 10:59:41;;;;;;;6.90;6.30;;;;;;;;;;3589939;39;20866;-74
2021/07/02 11:02:12;;;;;;;7.63;7.03;;;;;;;;;;3587574;39;20410;-76
2021/07/02 11:04:38;;;;;;;8.27;7.30;;;;;;;;;;3592760;39;20407;-75
2021/07/02 11:07:25;;;;;;;5.77;5.13;;;;;;;;;;3590140;39;20472;-75
2021/07/02 11:10:01;;;;;;;8.10;7.27;;;;;;;;;;3573317;40;20406;-76
2021/07/02 11:12:34;;;;;;;10.90;8.47;;;;;;;;;;3571719;40;20426;-75
2021/07/02 11:15:08;;;;;;;8.77;7.97;;;;;;;;;;3564646;40;20402;-75
2021/07/02 11:17:43;;;;;;;7.30;6.60;;;;;;;;;;3572695;40;20477;-76
2021/07/02 11:22:39;;;;;;;7.27;6.70;;;;;;;;;;3570390;40;20430;-75
2021/07/02 11:25:20;;;;;;;7.30;6.57;;;;;;;;;;3572934;40;20436;-74
2021/07/02 11:28:39;;;;;;;6.93;5.33;;;;;;;;;;3551374;40;20463;-74
2021/07/02 11:30:43;;;;;;;7.50;6.83;;;;;;;;;;3568785;40;20819;-75
2021/07/02 11:33:10;;;;;;;8.43;7.67;;;;;;;;;;3573269;40;20414;-75
2021/07/02 11:35:37;;;;;;;8.80;6.60;;;;;;;;;;3574752;40;20473;-75
2021/07/02 11:38:08;;;;;;;7.40;6.73;;;;;;;;;;3566197;40;20485;-77
2021/07/02 11:40:35;;;;;;;7.43;6.60;;;;;;;;;;3568403;40;20417;-76
2021/07/02 11:43:03;;;;;;;9.50;7.00;;;;;;;;;;3565562;40;20409;-75
2021/07/02 11:45:42;;;;;;;7.93;6.70;;;;;;;;;;3559777;40;20410;-75
2021/07/02 11:48:21;;;;;;;8.23;7.53;;;;;;;;;;3601456;39;20450;-76
2021/07/02 11:50:51;;;;;;;8.10;7.30;;;;;;;;;;3584882;39;20414;-75
2021/07/02 11:53:26;;;;;;;7.47;6.80;;;;;;;;;;3603155;39;20464;-74
2021/07/02 11:56:00;;;;;;;10.97;7.00;;;;;;;;;;3600389;39;21113;-75
2021/07/02 11:58:31;;;;;;;7.60;5.93;;;;;;;;;;3589407;39;20825;-75
2021/07/02 12:00:58;;;;;;;7.80;7.00;;;;;;;;;;3585578;39;21019;-75
2021/07/02 12:03:25;;;;;;;7.67;6.73;;;;;;;;;;3580478;39;20563;-75
2021/07/02 12:05:59;;;;;;;7.50;6.77;;;;;;;;;;3594222;39;20411;-75
2021/07/02 12:08:26;;;;;;;8.07;7.37;;;;;;;;;;3601750;39;20422;-75
2021/07/02 12:11:03;;;;;;;10.10;7.60;;;;;;;;;;3590945;39;20842;-74
2021/07/02 12:13:34;;;;;;;8.57;7.70;;;;;;;;;;3590341;39;20421;-75
2021/07/02 12:16:03;;;;;;;7.40;6.70;;;;;;;;;;3603007;39;20406;-74
2021/07/02 12:18:30;;;;;;;9.47;8.67;;;;;;;;;;3592523;39;20396;-75
2021/07/02 12:21:00;;;;;;;10.87;9.27;;;;;;;;;;3600236;39;20398;-74
2021/07/02 12:23:31;;;;;;;9.40;8.10;;;;;;;;;;3593546;39;20399;-75
2021/07/02 12:26:15;;;;;;;9.57;8.43;;;;;;;;;;3593217;39;20491;-75
2021/07/02 12:28:51;;;;;;;8.80;8.03;;;;;;;;;;3591951;39;20414;-75
2021/07/02 12:31:21;;;;;;;9.07;7.63;;;;;;;;;;3603093;39;20378;-76
2021/07/02 12:33:47;;;;;;;6.70;6.07;;;;;;;;;;3580154;39;20417;-75
2021/07/02 12:36:14;;;;;;;7.70;7.00;;;;;;;;;;3602042;39;20468;-75
2021/07/02 12:38:58;;;;;;;8.87;7.97;;;;;;;;;;3590020;39;20418;-75
2021/07/02 12:41:25;;;;;;;8.37;7.57;;;;;;;;;;3603060;39;20421;-75
2021/07/02 12:43:51;;;;;;;9.60;8.70;;;;;;;;;;3586298;39;20811;-75
2021/07/02 12:46:17;;;;;;;10.30;9.50;;;;;;;;;;3591560;39;20403;-75
2021/07/02 12:48:43;;;;;;;13.10;8.70;;;;;;;;;;3591425;39;20414;-76
2021/07/02 12:51:10;;;;;;;11.67;10.63;;;;;;;;;;3595061;39;20397;-75
2021/07/02 12:56:22;;;;;;;10.83;9.90;;;;;;;;;;3587484;39;20421;-75
2021/07/02 12:58:48;;;;;;;11.60;10.47;;;;;;;;;;3585308;39;20884;-76
2021/07/02 13:01:14;;;;;;;14.10;11.87;;;;;;;;;;3584607;39;20429;-75
2021/07/02 13:03:40;;;;;;;12.43;10.87;;;;;;;;;;3601602;39;20441;-75
2021/07/02 13:06:16;;;;;;;10.43;9.50;;;;;;;;;;3585400;39;20401;-75
2021/07/02 13:08:42;;;;;;;11.17;10.23;;;;;;;;;;3594363;39;20442;-76
2021/07/02 13:11:21;;;;;;;9.70;8.93;;;;;;;;;;3585779;39;20484;-75
2021/07/02 13:13:48;;;;;;;10.30;9.50;;;;;;;;;;3600075;39;20446;-76
2021/07/02 13:16:14;;;;;;;10.80;9.43;;;;;;;;;;3600196;39;20976;-75
2021/07/02 13:18:42;;;;;;;12.70;11.50;;;;;;;;;;3573160;39;20426;-75
2021/07/02 13:21:12;;;;;;;11.33;10.43;;;;;;;;;;3603015;39;20391;-75
2021/07/02 13:23:42;;;;;;;11.10;10.13;;;;;;;;;;3590244;39;20414;-75
2021/07/02 13:26:12;;;;;;;11.90;10.70;;;;;;;;;;3601756;39;20507;-75
2021/07/02 13:28:38;;;;;;;11.90;10.80;;;;;;;;;;3585481;39;20938;-75
2021/07/02 13:31:23;;;;;;;10.20;9.43;;;;;;;;;;3591125;39;20391;-75
2021/07/02 13:34:00;;;;;;;11.27;10.30;;;;;;;;;;3583042;39;20451;-76
2021/07/02 13:36:32;;;;;;;11.77;10.73;;;;;;;;;;3593313;39;20414;-75
2021/07/02 13:38:59;;;;;;;11.50;10.50;;;;;;;;;;3602854;39;20928;-75
2021/07/02 13:41:25;;;;;;;11.60;9.97;;;;;;;;;;3600359;39;20391;-75
2021/07/02 13:43:59;;;;;;;10.90;9.97;;;;;;;;;;3583664;39;20414;-76
2021/07/02 13:46:30;;;;;;;12.40;11.20;;;;;;;;;;3591367;39;20411;-75
2021/07/02 13:48:56;;;;;;;10.13;9.30;;;;;;;;;;3589438;39;20807;-75
2021/07/02 13:51:23;;;;;;;8.67;7.80;;;;;;;;;;3599621;39;20475;-75
2021/07/02 13:53:49;;;;;;;11.63;10.13;;;;;;;;;;3578287;39;20496;-75
2021/07/02 13:56:15;;;;;;;9.13;8.43;;;;;;;;;;3596756;39;20500;-75
2021/07/02 13:58:42;;;;;;;12.00;10.43;;;;;;;;;;3600663;39;20436;-75
2021/07/02 14:01:08;;;;;;;9.20;8.50;;;;;;;;;;3592824;39;20451;-75
2021/07/02 14:03:35;;;;;;;12.17;11.20;;;;;;;;;;3589289;39;20448;-75
2021/07/02 14:06:01;;;;;;;13.00;11.90;;;;;;;;;;3596786;39;20472;-75
2021/07/02 14:08:28;;;;;;;10.77;9.90;;;;;;;;;;3585674;39;20740;-75
2021/07/02 14:10:54;;;;;;;12.20;11.10;;;;;;;;;;3572958;39;20466;-75
2021/07/02 14:13:20;;;;;;;11.43;10.40;;;;;;;;;;3580993;39;20468;-75
2021/07/02 14:15:46;;;;;;;11.20;10.40;;;;;;;;;;3580992;39;20820;-75
2021/07/02 14:18:12;;;;;;;12.33;11.33;;;;;;;;;;3600817;39;20410;-74
2021/07/02 14:20:38;;;;;;;12.33;11.27;;;;;;;;;;3578519;39;20392;-74
2021/07/02 14:23:05;;;;;;;12.13;10.97;;;;;;;;;;3582145;39;20426;-74
2021/07/02 14:25:32;;;;;;;10.77;9.67;;;;;;;;;;3600018;39;20519;-75
2021/07/02 14:27:59;;;;;;;12.20;11.00;;;;;;;;;;3591589;39;20415;-74
2021/07/02 14:30:25;;;;;;;10.90;9.80;;;;;;;;;;3582301;39;20426;-74
2021/07/02 14:32:51;;;;;;;11.30;10.30;;;;;;;;;;3599931;39;20415;-75
2021/07/02 14:35:20;;;;;;;13.90;12.57;;;;;;;;;;3600000;39;21026;-75